Time;durP1;ratioP1;P1;durP2;ratioP2;P2;SDS_P1;SDS_P2;PMS_P1;PMS_P2;Temp;Humidity;BMP_temperature;BMP_pressure;BME280_temperature;BME280_humidity;BME280_pressure;Samples;Min_cycle;Max_cycle;Signal;HPM_P1;HPM_P2
2021/09/17 00:01:11;;;;;;;1.85;1.42;;;23.90;56.20;;;;;;5051893;28;20049;-58
2021/09/17 00:03:37;;;;;;;2.03;1.30;;;23.90;56.20;;;;;;5051110;28;20021;-60
2021/09/17 00:06:03;;;;;;;2.55;1.30;;;23.90;56.10;;;;;;5050225;28;20021;-59
2021/09/17 00:08:28;;;;;;;2.05;1.50;;;23.90;56.20;;;;;;5049700;28;20021;-58
2021/09/17 00:10:54;;;;;;;3.30;1.35;;;23.90;56.30;;;;;;5051977;28;20479;-58
2021/09/17 00:13:20;;;;;;;2.13;1.65;;;24.00;56.30;;;;;;5052183;28;20056;-60
2021/09/17 00:15:45;;;;;;;1.63;1.30;;;23.90;56.10;;;;;;5053564;28;20533;-62
2021/09/17 00:18:11;;;;;;;2.35;1.48;;;23.90;56.20;;;;;;5053189;28;20040;-59
2021/09/17 00:20:37;;;;;;;2.33;1.40;;;23.90;56.20;;;;;;5048589;28;20022;-59
2021/09/17 00:23:03;;;;;;;1.95;1.60;;;23.90;56.20;;;;;;5051977;28;20090;-63
2021/09/17 00:25:28;;;;;;;4.38;1.63;;;23.90;56.20;;;;;;5051213;28;20462;-59
2021/09/17 00:27:54;;;;;;;2.00;1.80;;;23.90;56.20;;;;;;5052953;28;20079;-58
2021/09/17 00:30:20;;;;;;;2.53;1.40;;;23.90;56.20;;;;;;5047574;28;20029;-62
2021/09/17 00:32:45;;;;;;;1.95;1.35;;;23.90;56.20;;;;;;5050612;28;20500;-60
2021/09/17 00:35:12;;;;;;;1.15;1.05;;;23.90;56.30;;;;;;5052636;28;20063;-59
2021/09/17 00:37:38;;;;;;;1.58;1.30;;;23.90;56.30;;;;;;5050010;28;20052;-59
2021/09/17 00:40:04;;;;;;;2.33;1.60;;;23.90;56.30;;;;;;5052541;28;20386;-59
2021/09/17 00:42:29;;;;;;;3.47;1.48;;;23.90;56.30;;;;;;5051417;28;20043;-59
2021/09/17 00:44:55;;;;;;;1.60;1.20;;;23.90;56.20;;;;;;5050085;28;20044;-59
2021/09/17 00:47:21;;;;;;;1.35;1.25;;;23.90;56.40;;;;;;5049023;28;20542;-58
2021/09/17 00:49:47;;;;;;;1.60;1.50;;;23.90;56.50;;;;;;5051621;28;20394;-59
2021/09/17 00:52:13;;;;;;;3.08;1.58;;;23.90;56.40;;;;;;5051928;28;20505;-59
2021/09/17 00:54:38;;;;;;;1.85;1.35;;;23.90;56.40;;;;;;5049365;28;20497;-59
2021/09/17 00:57:05;;;;;;;1.45;1.33;;;23.90;56.40;;;;;;5052246;28;20082;-59
2021/09/17 00:59:31;;;;;;;1.45;1.20;;;23.90;56.50;;;;;;5050664;28;20029;-59
2021/09/17 01:01:56;;;;;;;1.50;1.40;;;23.90;56.40;;;;;;5051828;28;20041;-59
2021/09/17 01:04:22;;;;;;;2.35;1.38;;;23.90;56.40;;;;;;5047795;28;20516;-62
2021/09/17 01:06:48;;;;;;;2.58;1.27;;;23.90;56.40;;;;;;5051879;28;20077;-58
2021/09/17 01:09:14;;;;;;;2.25;1.65;;;23.90;56.50;;;;;;5052141;28;20501;-59
2021/09/17 01:11:40;;;;;;;1.70;1.33;;;23.90;56.50;;;;;;5051075;28;20043;-58
2021/09/17 01:14:06;;;;;;;1.40;1.27;;;23.90;56.40;;;;;;5050847;28;20032;-61
2021/09/17 01:16:32;;;;;;;2.05;1.40;;;23.90;56.50;;;;;;5051124;28;20029;-58
2021/09/17 01:18:58;;;;;;;1.42;1.20;;;23.90;56.50;;;;;;5051891;28;20078;-59
2021/09/17 01:21:25;;;;;;;2.75;1.40;;;23.90;56.50;;;;;;5047240;28;20036;-58
2021/09/17 01:23:51;;;;;;;2.75;1.20;;;23.90;56.50;;;;;;5051912;28;20029;-58
2021/09/17 01:26:17;;;;;;;1.65;1.42;;;23.90;56.50;;;;;;5048007;28;20093;-66
2021/09/17 01:28:43;;;;;;;1.67;1.27;;;23.90;56.50;;;;;;5049084;28;20482;-58
2021/09/17 01:31:09;;;;;;;2.33;1.67;;;23.90;56.50;;;;;;5050173;28;20544;-62
2021/09/17 01:33:35;;;;;;;2.10;1.20;;;23.90;56.50;;;;;;5049738;28;20060;-58
2021/09/17 01:36:03;;;;;;;1.65;1.40;;;23.90;56.50;;;;;;5047631;28;20063;-58
2021/09/17 01:38:31;;;;;;;1.60;1.40;;;23.90;56.50;;;;;;5032469;28;20456;-58
2021/09/17 01:40:58;;;;;;;2.38;1.30;;;23.90;56.50;;;;;;5049455;28;20036;-58
2021/09/17 01:43:24;;;;;;;2.30;1.58;;;23.90;56.50;;;;;;5039835;28;20068;-59
2021/09/17 01:45:50;;;;;;;1.90;1.40;;;23.90;56.50;;;;;;5045666;28;20488;-59
2021/09/17 01:48:16;;;;;;;3.38;1.45;;;23.90;56.40;;;;;;5052887;28;20064;-66
2021/09/17 01:50:42;;;;;;;2.00;1.35;;;23.90;56.50;;;;;;5049774;28;20025;-59
2021/09/17 01:53:08;;;;;;;2.55;1.50;;;23.90;56.60;;;;;;5033352;28;20048;-58
2021/09/17 01:55:33;;;;;;;1.85;1.30;;;23.90;56.50;;;;;;5044009;28;20029;-59
2021/09/17 01:57:59;;;;;;;1.73;1.60;;;23.90;56.50;;;;;;5032845;28;20029;-60
2021/09/17 02:00:25;;;;;;;1.80;1.42;;;23.90;56.60;;;;;;5032189;28;20498;-58
2021/09/17 02:02:50;;;;;;;2.05;1.65;;;23.90;56.60;;;;;;5033232;28;20109;-59
2021/09/17 02:05:17;;;;;;;1.50;1.40;;;23.90;56.50;;;;;;5033106;28;20039;-66
2021/09/17 02:07:43;;;;;;;1.92;1.70;;;23.90;56.50;;;;;;5032520;28;20046;-58
2021/09/17 02:10:09;;;;;;;3.60;1.30;;;23.90;56.50;;;;;;5033917;28;20022;-58
2021/09/17 02:12:35;;;;;;;1.60;1.35;;;23.90;56.60;;;;;;5041821;28;20511;-59
2021/09/17 02:15:01;;;;;;;2.88;1.45;;;23.90;56.60;;;;;;5052499;28;20103;-58
2021/09/17 02:17:27;;;;;;;1.80;1.40;;;23.90;56.60;;;;;;5051637;28;20116;-59
2021/09/17 02:19:53;;;;;;;1.90;1.40;;;23.90;56.60;;;;;;5048867;28;20104;-59
2021/09/17 02:22:19;;;;;;;1.48;1.20;;;23.90;56.60;;;;;;5035845;28;20024;-66
2021/09/17 02:24:44;;;;;;;2.95;1.20;;;23.90;56.60;;;;;;5051964;28;20111;-59
2021/09/17 02:27:10;;;;;;;2.53;1.40;;;23.90;56.60;;;;;;5037288;28;20026;-58
2021/09/17 02:29:36;;;;;;;3.13;1.33;;;23.90;56.60;;;;;;5031823;28;20455;-59
2021/09/17 02:32:02;;;;;;;3.38;1.40;;;23.90;56.60;;;;;;5032701;28;20037;-58
2021/09/17 02:34:27;;;;;;;1.98;1.33;;;23.90;56.60;;;;;;5031741;28;20083;-58
2021/09/17 02:36:53;;;;;;;1.75;1.30;;;23.90;56.60;;;;;;5032271;28;20098;-58
2021/09/17 02:39:19;;;;;;;1.80;1.30;;;23.90;56.60;;;;;;5032217;28;20030;-66
2021/09/17 02:41:44;;;;;;;1.95;1.50;;;23.90;56.70;;;;;;5032360;28;20037;-58
2021/09/17 02:44:11;;;;;;;1.63;1.48;;;23.90;56.70;;;;;;5032079;28;20039;-60
2021/09/17 02:46:36;;;;;;;2.17;1.40;;;23.90;56.70;;;;;;5039007;28;20366;-58
2021/09/17 02:49:03;;;;;;;3.15;1.48;;;23.90;56.70;;;;;;5052232;28;20058;-58
2021/09/17 02:51:29;;;;;;;1.95;1.40;;;23.90;56.70;;;;;;5050787;28;20079;-58
2021/09/17 02:53:54;;;;;;;1.42;1.20;;;23.90;56.70;;;;;;5051842;28;20029;-58
2021/09/17 02:56:20;;;;;;;2.10;1.63;;;23.90;56.70;;;;;;5043368;28;20029;-66
2021/09/17 02:58:45;;;;;;;1.60;1.50;;;23.90;56.70;;;;;;5032318;28;20037;-58
2021/09/17 03:01:11;;;;;;;1.50;1.40;;;23.90;56.70;;;;;;5032172;28;20057;-58
2021/09/17 03:03:37;;;;;;;1.83;1.58;;;23.90;56.70;;;;;;5031432;28;20064;-58
2021/09/17 03:06:02;;;;;;;3.78;1.70;;;23.90;56.70;;;;;;5037931;28;20061;-58
2021/09/17 03:08:28;;;;;;;3.53;1.65;;;23.90;56.70;;;;;;5050652;28;20382;-63
2021/09/17 03:10:57;;;;;;;1.40;1.30;;;23.90;56.70;;;;;;5046230;28;20092;-58
2021/09/17 03:13:24;;;;;;;1.85;1.60;;;23.90;56.80;;;;;;5031276;28;20075;-66
2021/09/17 03:15:51;;;;;;;2.95;1.60;;;23.90;56.80;;;;;;5030522;28;20091;-61
2021/09/17 03:18:17;;;;;;;2.38;1.65;;;23.90;56.70;;;;;;5032534;28;20467;-58
2021/09/17 03:20:44;;;;;;;1.98;1.50;;;23.90;56.80;;;;;;5049274;28;20033;-59
2021/09/17 03:23:11;;;;;;;2.33;2.13;;;23.90;56.80;;;;;;5051539;28;20082;-59
2021/09/17 03:25:37;;;;;;;2.15;1.90;;;23.90;56.80;;;;;;5048159;28;20759;-58
2021/09/17 03:28:03;;;;;;;2.75;1.65;;;23.90;57.40;;;;;;5031873;28;20029;-58
2021/09/17 03:30:28;;;;;;;1.52;1.40;;;23.90;56.80;;;;;;5030948;28;20061;-58
2021/09/17 03:32:54;;;;;;;2.53;1.70;;;23.90;56.80;;;;;;5032097;28;20091;-58
2021/09/17 03:35:20;;;;;;;6.85;1.67;;;23.90;56.80;;;;;;5031668;28;20064;-66
2021/09/17 03:37:45;;;;;;;3.45;1.63;;;23.90;56.70;;;;;;5033077;28;20536;-58
2021/09/17 03:40:11;;;;;;;3.83;1.55;;;23.80;56.70;;;;;;5031239;28;20600;-59
2021/09/17 03:42:37;;;;;;;1.80;1.23;;;23.80;56.70;;;;;;5031875;28;20034;-58
2021/09/17 03:45:04;;;;;;;3.92;1.85;;;23.80;56.70;;;;;;5038261;28;20055;-58
2021/09/17 03:47:30;;;;;;;2.38;1.50;;;23.80;56.70;;;;;;5042728;28;20057;-58
2021/09/17 03:49:55;;;;;;;2.75;1.73;;;23.80;56.70;;;;;;5031488;28;20103;-59
2021/09/17 03:52:21;;;;;;;2.17;1.52;;;23.80;56.70;;;;;;5044135;28;20040;-66
2021/09/17 03:54:47;;;;;;;3.47;1.95;;;23.80;56.60;;;;;;5049721;28;20838;-59
2021/09/17 03:57:12;;;;;;;2.17;1.40;;;23.80;56.60;;;;;;5039939;28;20438;-58
2021/09/17 03:59:38;;;;;;;2.70;1.55;;;23.80;56.60;;;;;;5030832;28;20064;-59
2021/09/17 04:02:04;;;;;;;1.50;1.40;;;23.90;56.70;;;;;;5031103;28;20076;-58
2021/09/17 04:04:29;;;;;;;1.83;1.58;;;23.80;56.60;;;;;;5030855;28;20496;-58
2021/09/17 04:06:55;;;;;;;4.97;1.30;;;23.90;56.60;;;;;;5031164;28;20029;-58
2021/09/17 04:09:21;;;;;;;3.42;1.55;;;23.90;56.60;;;;;;5030033;28;20036;-66
2021/09/17 04:11:46;;;;;;;1.77;1.40;;;23.80;56.60;;;;;;5033619;28;20033;-58
2021/09/17 04:14:12;;;;;;;1.23;1.10;;;23.80;56.60;;;;;;5031377;28;20033;-58
2021/09/17 04:16:37;;;;;;;1.48;1.38;;;23.80;56.60;;;;;;5043941;28;20036;-58
2021/09/17 04:19:03;;;;;;;2.15;1.40;;;23.80;56.60;;;;;;5049537;28;20032;-58
2021/09/17 04:21:30;;;;;;;2.17;1.45;;;23.80;56.70;;;;;;5053061;28;20037;-58
2021/09/17 04:23:55;;;;;;;1.30;1.20;;;23.80;56.60;;;;;;5054741;28;20436;-58
2021/09/17 04:26:22;;;;;;;2.95;1.40;;;23.80;56.70;;;;;;5051260;28;20164;-65
2021/09/17 04:28:49;;;;;;;2.65;1.30;;;23.80;56.70;;;;;;5034496;28;20041;-58
2021/09/17 04:31:15;;;;;;;2.17;1.50;;;23.80;56.70;;;;;;5034823;28;20161;-58
2021/09/17 04:33:41;;;;;;;1.83;1.35;;;23.90;56.70;;;;;;5034134;28;20128;-58
2021/09/17 04:36:06;;;;;;;3.03;1.80;;;23.80;56.70;;;;;;5034774;28;20387;-58
2021/09/17 04:38:32;;;;;;;3.33;1.52;;;23.90;56.80;;;;;;5033910;28;20096;-58
2021/09/17 04:40:58;;;;;;;3.88;1.70;;;23.80;56.70;;;;;;5039860;28;20425;-58
2021/09/17 04:43:24;;;;;;;2.42;1.40;;;23.80;56.70;;;;;;5052646;28;20111;-66
2021/09/17 04:45:49;;;;;;;2.33;1.40;;;23.80;56.70;;;;;;5038567;28;20029;-58
2021/09/17 04:48:15;;;;;;;2.42;1.65;;;23.80;56.70;;;;;;5054160;28;20060;-61
2021/09/17 04:50:42;;;;;;;2.45;1.60;;;23.80;56.80;;;;;;5053702;28;20025;-59
2021/09/17 04:53:08;;;;;;;3.25;1.83;;;23.80;56.70;;;;;;5054437;28;20033;-59
2021/09/17 04:55:34;;;;;;;2.30;1.60;;;23.80;56.00;;;;;;5051920;28;20086;-59
2021/09/17 04:58:07;;;;;;;1.80;1.42;;;23.80;55.90;;;;;;5042656;28;20091;-59
2021/09/17 05:00:35;;;;;;;2.17;1.50;;;23.80;56.20;;;;;;5037481;28;20140;-59
2021/09/17 05:03:01;;;;;;;4.82;1.67;;;23.80;57.00;;;;;;5053891;28;20033;-58
2021/09/17 05:05:27;;;;;;;2.42;1.50;;;23.80;56.40;;;;;;5051566;28;20037;-59
2021/09/17 05:07:53;;;;;;;1.85;1.60;;;23.80;56.40;;;;;;5043750;28;20044;-59
2021/09/17 05:10:19;;;;;;;4.43;1.95;;;23.70;55.10;;;;;;5050221;28;20025;-58
2021/09/17 05:12:44;;;;;;;2.03;1.63;;;23.70;55.00;;;;;;5033154;28;20026;-58
2021/09/17 05:15:11;;;;;;;4.10;1.83;;;23.60;54.70;;;;;;5033743;28;20048;-57
2021/09/17 05:17:36;;;;;;;3.60;1.90;;;23.70;55.50;;;;;;5032465;28;20375;-56
2021/09/17 05:20:03;;;;;;;3.53;1.67;;;23.60;53.80;;;;;;5033725;28;20036;-56
2021/09/17 05:22:29;;;;;;;5.75;2.08;;;23.70;53.70;;;;;;5032933;28;20087;-58
2021/09/17 05:24:55;;;;;;;4.75;2.10;;;23.60;53.30;;;;;;5034294;28;20075;-57
2021/09/17 05:27:21;;;;;;;2.78;1.98;;;23.70;53.30;;;;;;5043493;28;20052;-56
2021/09/17 05:29:47;;;;;;;2.25;1.98;;;23.60;53.20;;;;;;5052538;28;20486;-56
2021/09/17 05:32:13;;;;;;;6.05;2.13;;;23.50;53.30;;;;;;5052332;28;20044;-56
2021/09/17 05:34:38;;;;;;;4.60;1.98;;;23.50;53.50;;;;;;5052897;28;20025;-56
2021/09/17 05:37:05;;;;;;;6.50;1.92;;;23.40;53.50;;;;;;5047568;28;20108;-57
2021/09/17 05:39:31;;;;;;;2.88;2.13;;;23.30;53.70;;;;;;5034742;28;20036;-58
2021/09/17 05:41:56;;;;;;;7.45;2.10;;;23.30;54.10;;;;;;5045955;28;20024;-57
2021/09/17 05:44:22;;;;;;;3.63;1.77;;;23.30;55.10;;;;;;5050816;28;20377;-58
2021/09/17 05:46:48;;;;;;;4.30;1.50;;;23.40;55.40;;;;;;5032102;28;20030;-56
2021/09/17 05:49:13;;;;;;;3.40;1.60;;;23.40;55.40;;;;;;5033528;28;20117;-57
2021/09/17 05:51:40;;;;;;;4.43;1.90;;;23.50;55.50;;;;;;5032709;28;20083;-57
2021/09/17 05:54:05;;;;;;;4.90;1.80;;;23.40;56.00;;;;;;5033373;28;20493;-58
2021/09/17 05:56:32;;;;;;;2.45;1.70;;;23.40;56.60;;;;;;5035012;28;20033;-61
2021/09/17 05:58:57;;;;;;;3.78;1.95;;;23.40;55.00;;;;;;5036499;28;20041;-58
2021/09/17 06:01:23;;;;;;;2.88;2.30;;;23.40;54.60;;;;;;5048520;28;20049;-58
2021/09/17 06:03:48;;;;;;;3.72;2.00;;;23.50;54.70;;;;;;5052626;28;20033;-58
2021/09/17 06:06:17;;;;;;;3.45;1.90;;;23.60;54.00;;;;;;5053045;28;20025;-58
2021/09/17 06:08:42;;;;;;;5.25;2.20;;;23.60;53.70;;;;;;5051787;28;20474;-58
2021/09/17 06:11:08;;;;;;;2.80;1.52;;;23.60;53.80;;;;;;5045923;28;20040;-58
2021/09/17 06:13:33;;;;;;;3.80;2.10;;;23.60;53.50;;;;;;5050796;28;20099;-58
2021/09/17 06:15:59;;;;;;;2.13;1.83;;;23.50;53.80;;;;;;5046603;28;20426;-58
2021/09/17 06:18:25;;;;;;;3.78;2.10;;;23.60;53.60;;;;;;5032703;28;20029;-57
2021/09/17 06:20:51;;;;;;;5.03;2.50;;;23.70;53.20;;;;;;5041674;28;20047;-58
2021/09/17 06:23:16;;;;;;;4.68;2.25;;;23.70;53.30;;;;;;5052418;28;20037;-58
2021/09/17 06:25:42;;;;;;;4.45;1.85;;;23.60;54.00;;;;;;5051573;28;20036;-57
2021/09/17 06:28:08;;;;;;;5.05;2.00;;;23.50;54.60;;;;;;5043929;28;20043;-53
2021/09/17 06:30:34;;;;;;;5.35;2.10;;;23.50;54.70;;;;;;5032007;28;20029;-56
2021/09/17 06:33:00;;;;;;;3.35;1.95;;;23.60;54.30;;;;;;5031309;28;20558;-56
2021/09/17 06:35:26;;;;;;;3.13;1.88;;;23.70;54.60;;;;;;5032182;28;20025;-61
2021/09/17 06:37:54;;;;;;;7.03;2.50;;;23.70;54.20;;;;;;5036915;28;20038;-56
2021/09/17 06:40:23;;;;;;;8.13;2.45;;;23.60;54.10;;;;;;5032339;28;20048;-58
2021/09/17 06:42:49;;;;;;;4.07;2.40;;;23.60;54.30;;;;;;5034374;28;20106;-56
2021/09/17 06:45:15;;;;;;;4.45;2.80;;;23.50;54.60;;;;;;5031346;28;20112;-56
2021/09/17 06:47:45;;;;;;;4.57;2.30;;;23.40;54.90;;;;;;5030294;28;20479;-58
2021/09/17 06:50:11;;;;;;;5.90;2.80;;;23.50;55.10;;;;;;5032332;28;20055;-54
2021/09/17 06:52:37;;;;;;;4.55;3.00;;;23.40;54.70;;;;;;5050489;28;20120;-56
2021/09/17 06:55:03;;;;;;;3.72;2.50;;;23.50;54.90;;;;;;5050868;28;20029;-54
2021/09/17 06:57:29;;;;;;;5.03;2.42;;;23.50;54.70;;;;;;5044326;28;20352;-64
2021/09/17 06:59:55;;;;;;;8.77;4.10;;;23.50;54.60;;;;;;5031335;28;20061;-58
2021/09/17 07:02:20;;;;;;;6.25;3.15;;;22.70;55.70;;;;;;5031788;28;20124;-56
2021/09/17 07:04:46;;;;;;;5.82;3.53;;;21.90;58.20;;;;;;5033478;28;20102;-52
2021/09/17 07:07:12;;;;;;;6.55;3.47;;;21.60;59.20;;;;;;5041199;28;20048;-53
2021/09/17 07:09:37;;;;;;;4.90;3.08;;;21.50;59.40;;;;;;5047856;28;20113;-55
2021/09/17 07:12:03;;;;;;;7.00;3.10;;;21.40;59.90;;;;;;5050951;28;20041;-55
2021/09/17 07:14:29;;;;;;;5.50;3.83;;;21.20;60.00;;;;;;5050803;28;20043;-61
2021/09/17 07:16:54;;;;;;;4.47;3.30;;;21.20;60.60;;;;;;5037168;28;20487;-61
2021/09/17 07:19:21;;;;;;;7.47;3.65;;;21.30;60.40;;;;;;5030448;28;20108;-54
2021/09/17 07:21:47;;;;;;;7.68;3.78;;;21.20;60.40;;;;;;5030499;28;20120;-54
2021/09/17 07:24:13;;;;;;;6.80;3.88;;;21.20;60.80;;;;;;5035894;28;20092;-54
2021/09/17 07:26:38;;;;;;;5.10;3.75;;;21.20;60.70;;;;;;5033506;28;20032;-53
2021/09/17 07:29:04;;;;;;;7.32;4.00;;;21.10;60.80;;;;;;5049626;28;20112;-55
2021/09/17 07:31:29;;;;;;;5.35;4.07;;;21.10;61.00;;;;;;5050980;28;20083;-54
2021/09/17 07:33:55;;;;;;;7.18;4.00;;;21.10;61.10;;;;;;5050415;28;20466;-54
2021/09/17 07:36:21;;;;;;;7.55;4.07;;;21.10;61.20;;;;;;5050766;28;20036;-53
2021/09/17 07:38:46;;;;;;;9.13;4.07;;;21.10;61.00;;;;;;5036995;28;20029;-51
2021/09/17 07:41:12;;;;;;;6.22;4.07;;;21.10;60.90;;;;;;5038019;28;20466;-55
2021/09/17 07:43:37;;;;;;;6.55;3.63;;;21.10;61.00;;;;;;5048101;28;20056;-58
2021/09/17 07:46:03;;;;;;;7.88;4.15;;;21.10;60.90;;;;;;5044427;28;20040;-57
2021/09/17 07:48:29;;;;;;;7.63;4.20;;;21.10;61.10;;;;;;5051577;28;20026;-59
2021/09/17 07:50:55;;;;;;;7.22;4.13;;;21.10;61.20;;;;;;5044377;28;20089;-59
2021/09/17 07:53:20;;;;;;;7.28;4.38;;;21.00;62.00;;;;;;5042857;28;20044;-58
2021/09/17 07:55:46;;;;;;;6.28;4.88;;;21.00;62.20;;;;;;5038629;28;20036;-60
2021/09/17 07:58:13;;;;;;;8.70;4.60;;;21.10;61.90;;;;;;5049646;28;20030;-58
2021/09/17 08:00:39;;;;;;;6.90;5.03;;;21.10;62.00;;;;;;5033936;28;20410;-53
2021/09/17 08:03:05;;;;;;;11.73;4.60;;;21.10;61.70;;;;;;5034771;28;20025;-58
2021/09/17 08:05:30;;;;;;;7.72;5.47;;;21.20;61.60;;;;;;5034827;28;20029;-59
2021/09/17 08:07:56;;;;;;;8.30;4.80;;;21.30;61.80;;;;;;5044430;28;20025;-58
2021/09/17 08:10:22;;;;;;;8.43;4.72;;;21.20;61.90;;;;;;5054067;28;20025;-58
2021/09/17 08:12:47;;;;;;;9.60;5.03;;;21.20;62.10;;;;;;5050134;28;20395;-57
2021/09/17 08:15:13;;;;;;;11.02;5.00;;;21.20;62.10;;;;;;5054415;28;20108;-58
2021/09/17 08:17:39;;;;;;;6.20;4.97;;;21.20;62.00;;;;;;5053797;28;20029;-58
2021/09/17 08:20:06;;;;;;;10.75;5.05;;;21.10;61.80;;;;;;5054446;28;20056;-58
2021/09/17 08:22:32;;;;;;;8.02;5.18;;;21.20;61.80;;;;;;5039328;28;20029;-58
2021/09/17 08:24:58;;;;;;;6.63;4.65;;;21.30;61.10;;;;;;5050251;28;20482;-57
2021/09/17 08:27:24;;;;;;;9.32;4.70;;;21.30;60.90;;;;;;5054346;28;20056;-56
2021/09/17 08:29:49;;;;;;;10.52;4.60;;;21.20;60.90;;;;;;5053329;28;20116;-56
2021/09/17 08:32:15;;;;;;;5.25;4.43;;;21.30;61.30;;;;;;5052717;28;20033;-58
2021/09/17 08:34:41;;;;;;;9.63;5.25;;;21.20;61.90;;;;;;5053654;28;20185;-58
2021/09/17 08:37:09;;;;;;;8.65;4.85;;;21.20;61.40;;;;;;5053867;28;20536;-55
2021/09/17 08:39:37;;;;;;;8.95;5.35;;;21.30;61.30;;;;;;5034418;28;20030;-62
2021/09/17 08:42:04;;;;;;;8.23;5.32;;;21.20;61.20;;;;;;5048637;28;20040;-56
2021/09/17 08:44:30;;;;;;;9.23;4.97;;;21.10;61.40;;;;;;5053963;28;20107;-55
2021/09/17 08:46:56;;;;;;;6.38;4.68;;;21.10;61.50;;;;;;5052900;28;20600;-57
2021/09/17 08:49:25;;;;;;;6.65;4.65;;;21.10;60.90;;;;;;5046785;28;20030;-58
2021/09/17 08:51:52;;;;;;;6.38;4.40;;;21.10;61.10;;;;;;5033553;28;20392;-54
2021/09/17 08:54:18;;;;;;;9.43;4.57;;;21.20;61.60;;;;;;5034640;28;20029;-56
2021/09/17 08:56:44;;;;;;;7.40;4.60;;;21.20;61.60;;;;;;5033620;28;20025;-57
2021/09/17 08:59:09;;;;;;;9.27;5.35;;;21.20;62.00;;;;;;5034388;28;20059;-56
2021/09/17 09:01:36;;;;;;;12.57;4.82;;;21.20;62.10;;;;;;5049326;28;20049;-62
2021/09/17 09:04:07;;;;;;;11.50;7.07;;;21.30;62.40;;;;;;5054128;28;20075;-57
2021/09/17 09:06:38;;;;;;;11.15;5.28;;;21.20;62.90;;;;;;5052850;28;20033;-57
2021/09/17 09:09:15;;;;;;;8.40;4.93;;;21.30;62.80;;;;;;5053070;28;20445;-58
2021/09/17 09:11:44;;;;;;;8.73;5.85;;;21.30;62.50;;;;;;5052587;28;20415;-58
2021/09/17 09:14:13;;;;;;;11.40;5.32;;;21.30;62.40;;;;;;5054218;28;20063;-58
2021/09/17 09:16:53;;;;;;;12.13;5.47;;;21.20;62.70;;;;;;5047312;28;20049;-62
2021/09/17 09:19:29;;;;;;;11.23;5.63;;;21.30;62.90;;;;;;5046263;28;20037;-56
2021/09/17 09:22:15;;;;;;;11.60;5.18;;;21.30;62.60;;;;;;5033009;28;20069;-57
2021/09/17 09:24:44;;;;;;;10.32;5.65;;;21.30;62.60;;;;;;5033663;28;20038;-58
2021/09/17 09:27:19;;;;;;;11.52;5.75;;;21.30;63.00;;;;;;5049096;28;20043;-58
2021/09/17 09:29:48;;;;;;;11.35;6.22;;;21.20;63.20;;;;;;5052389;28;20064;-58
2021/09/17 09:32:33;;;;;;;7.80;5.82;;;21.30;62.90;;;;;;5053601;28;20064;-56
2021/09/17 09:35:06;;;;;;;12.20;6.47;;;21.30;62.70;;;;;;5053021;28;20525;-57
2021/09/17 09:37:34;;;;;;;13.35;6.35;;;21.30;62.30;;;;;;5050449;28;20039;-57
2021/09/17 09:40:05;;;;;;;13.18;6.45;;;21.30;62.50;;;;;;5032985;28;20025;-56
2021/09/17 09:42:39;;;;;;;9.98;6.50;;;21.30;62.60;;;;;;5051772;28;20478;-56
2021/09/17 09:45:18;;;;;;;11.23;5.82;;;21.40;62.60;;;;;;5048516;28;20041;-56
2021/09/17 09:47:45;;;;;;;9.55;5.82;;;21.40;62.30;;;;;;5032332;28;20490;-58
2021/09/17 09:50:14;;;;;;;9.65;5.45;;;21.40;62.30;;;;;;5033591;28;20414;-56
2021/09/17 09:52:40;;;;;;;13.45;6.10;;;21.40;62.10;;;;;;5032686;28;20083;-62
2021/09/17 09:55:06;;;;;;;13.48;5.88;;;21.40;61.60;;;;;;5043911;28;20033;-58
2021/09/17 09:57:32;;;;;;;10.38;5.75;;;21.40;62.10;;;;;;5034259;28;20026;-56
2021/09/17 10:00:06;;;;;;;11.23;5.57;;;21.50;62.00;;;;;;5032096;28;20045;-58
2021/09/17 10:02:34;;;;;;;12.30;5.68;;;21.50;61.40;;;;;;5032962;28;20072;-58
2021/09/17 10:04:59;;;;;;;9.68;5.65;;;21.50;61.60;;;;;;5032279;28;20481;-56
2021/09/17 10:07:28;;;;;;;8.07;5.28;;;21.60;61.30;;;;;;5040509;28;20075;-58
2021/09/17 10:09:55;;;;;;;10.10;5.30;;;21.50;61.10;;;;;;5052140;28;20108;-58
2021/09/17 10:12:21;;;;;;;7.63;5.45;;;21.60;61.30;;;;;;5052781;28;20398;-56
2021/09/17 10:14:48;;;;;;;10.88;5.25;;;21.60;61.20;;;;;;5039587;28;20022;-56
2021/09/17 10:17:20;;;;;;;7.45;5.18;;;21.60;61.20;;;;;;5033037;28;20025;-56
2021/09/17 10:19:47;;;;;;;;;;;21.60;60.80;;;;;;5035603;28;20025;-58
2021/09/17 10:22:39;;;;;;;11.65;5.22;;;21.70;61.40;;;;;;5041351;28;20397;-57
2021/09/17 10:25:05;;;;;;;;;;;21.80;60.60;;;;;;5039500;28;20037;-56
2021/09/17 10:27:31;;;;;;;8.35;5.00;;;21.80;60.00;;;;;;5052467;28;19934;-58
2021/09/17 10:29:59;;;;;;;6.45;4.43;;;21.80;60.00;;;;;;5051738;28;20033;-57
2021/09/17 10:32:27;;;;;;;7.57;4.38;;;21.90;59.90;;;;;;5049530;28;20048;-57
2021/09/17 10:35:11;;;;;;;8.07;5.10;;;21.90;59.80;;;;;;5046751;28;20026;-58
2021/09/17 10:38:01;;;;;;;10.35;4.60;;;21.90;59.60;;;;;;5041711;28;20028;-64
2021/09/17 10:40:53;;;;;;;10.30;4.78;;;21.90;60.00;;;;;;5035706;28;20383;-59
2021/09/17 10:43:21;;;;;;;;;;;21.90;60.20;;;;;;5045574;28;20093;-59
2021/09/17 10:45:49;;;;;;;9.63;5.13;;;21.80;60.90;;;;;;5050932;28;20007;-59
2021/09/17 10:48:20;;;;;;;6.65;4.72;;;21.80;60.90;;;;;;5051865;28;20035;-58
2021/09/17 10:50:46;;;;;;;11.48;4.90;;;21.70;60.20;;;;;;5046828;28;20032;-59
2021/09/17 10:53:13;;;;;;;9.23;5.30;;;21.70;60.00;;;;;;5032080;28;20037;-56
2021/09/17 10:55:45;;;;;;;7.90;4.75;;;21.70;59.30;;;;;;5045185;28;20025;-66
2021/09/17 10:58:28;;;;;;;10.10;4.47;;;21.60;59.40;;;;;;5044028;28;20032;-59
2021/09/17 11:01:01;;;;;;;6.72;3.70;;;21.70;60.20;;;;;;5051384;28;20053;-58
2021/09/17 11:03:36;;;;;;;7.50;4.15;;;21.80;59.20;;;;;;5050131;28;20033;-58
2021/09/17 11:06:37;;;;;;;9.98;4.35;;;21.80;58.80;;;;;;5030752;28;20047;-55
2021/09/17 11:09:05;;;;;;;6.45;4.10;;;21.80;58.60;;;;;;5050653;28;20025;-59
2021/09/17 11:11:43;;;;;;;4.80;3.08;;;21.80;56.50;;;;;;5041234;28;20072;-58
2021/09/17 11:14:09;;;;;;;10.40;3.88;;;21.70;56.70;;;;;;5032059;28;20022;-52
2021/09/17 11:16:35;;;;;;;7.15;4.68;;;21.70;57.40;;;;;;5031954;28;20812;-60
2021/09/17 11:19:09;;;;;;;6.43;4.25;;;21.70;57.10;;;;;;5030858;28;20028;-59
2021/09/17 11:21:40;;;;;;;6.38;3.90;;;21.70;56.60;;;;;;5042314;28;20043;-55
2021/09/17 11:24:15;;;;;;;6.10;3.80;;;21.70;57.20;;;;;;5050543;28;20073;-57
2021/09/17 11:26:44;;;;;;;8.63;3.70;;;21.70;57.30;;;;;;5074400;28;20493;-66
2021/09/17 11:29:12;;;;;;;5.45;3.95;;;21.60;57.30;;;;;;5031674;28;20080;-60
2021/09/17 11:31:50;;;;;;;5.07;3.83;;;21.60;58.30;;;;;;5036282;28;20117;-61
2021/09/17 11:34:18;;;;;;;6.53;3.90;;;21.60;57.00;;;;;;5053037;28;20033;-59
2021/09/17 11:36:46;;;;;;;5.93;3.75;;;21.60;55.90;;;;;;5055819;28;20037;-60
2021/09/17 11:39:22;;;;;;;5.55;2.97;;;21.70;56.50;;;;;;5049579;28;20029;-59
2021/09/17 11:41:49;;;;;;;7.63;3.75;;;21.70;55.00;;;;;;5056867;28;20037;-59
2021/09/17 11:44:30;;;;;;;8.40;3.50;;;21.60;55.00;;;;;;5051721;28;20355;-59
2021/09/17 11:46:56;;;;;;;5.07;3.17;;;21.60;55.20;;;;;;5037479;28;20033;-59
2021/09/17 11:49:30;;;;;;;4.85;3.00;;;21.70;56.00;;;;;;5038202;28;20490;-59
2021/09/17 11:52:01;;;;;;;7.50;3.00;;;21.70;55.40;;;;;;5037335;28;20066;-59
2021/09/17 11:54:27;;;;;;;7.25;2.95;;;21.70;54.60;;;;;;5041266;28;20021;-59
2021/09/17 11:57:04;;;;;;;5.82;3.13;;;21.70;55.00;;;;;;5057154;28;20025;-59
2021/09/17 11:59:31;;;;;;;3.58;2.75;;;21.80;54.60;;;;;;5056709;28;20498;-59
2021/09/17 12:02:17;;;;;;;7.95;2.95;;;21.80;54.50;;;;;;5057186;28;20091;-59
2021/09/17 12:04:53;;;;;;;4.65;2.72;;;21.80;53.10;;;;;;5057434;28;20032;-67
2021/09/17 12:07:20;;;;;;;6.25;3.20;;;21.80;53.20;;;;;;5056300;28;20043;-59
2021/09/17 12:09:46;;;;;;;6.25;3.13;;;21.80;53.20;;;;;;5056934;28;20159;-60
2021/09/17 12:12:13;;;;;;;5.50;2.90;;;21.80;53.10;;;;;;5057854;28;20549;-60
2021/09/17 12:14:47;;;;;;;7.85;3.17;;;22.00;53.20;;;;;;5058000;28;20040;-59
2021/09/17 12:17:12;;;;;;;3.50;2.50;;;21.90;51.30;;;;;;5039984;28;20359;-59
2021/09/17 12:19:54;;;;;;;3.55;2.40;;;21.90;52.20;;;;;;5038026;28;20055;-59
2021/09/17 12:22:29;;;;;;;3.75;2.28;;;22.00;53.00;;;;;;5053277;28;20087;-60
2021/09/17 12:25:16;;;;;;;2.92;2.00;;;22.10;52.90;;;;;;5045286;28;20060;-60
2021/09/17 12:27:46;;;;;;;3.13;1.83;;;22.40;54.10;;;;;;5055307;28;20082;-67
2021/09/17 12:30:20;;;;;;;4.22;1.88;;;22.60;54.30;;;;;;5046646;28;20044;-60
2021/09/17 12:33:05;;;;;;;2.95;1.60;;;22.80;55.10;;;;;;5038529;28;20040;-59
2021/09/17 12:35:31;;;;;;;4.10;1.88;;;22.90;55.10;;;;;;5044970;28;20029;-59
2021/09/17 12:37:58;;;;;;;7.25;2.08;;;22.90;55.60;;;;;;5056853;28;20381;-59
2021/09/17 12:40:29;;;;;;;3.45;1.80;;;22.80;52.30;;;;;;5056887;28;20028;-59
2021/09/17 12:43:07;;;;;;;6.65;2.70;;;22.60;49.70;;;;;;5050053;28;20047;-59
2021/09/17 12:45:35;;;;;;;2.83;1.65;;;22.40;49.70;;;;;;5035635;28;20021;-59
2021/09/17 12:48:04;;;;;;;4.40;2.10;;;22.30;49.30;;;;;;5039209;28;20064;-59